Time;durP1;ratioP1;P1;durP2;ratioP2;P2;SDS_P1;SDS_P2;PMS_P1;PMS_P2;Temp;Humidity;BMP_temperature;BMP_pressure;BME280_temperature;BME280_humidity;BME280_pressure;Samples;Min_cycle;Max_cycle;Signal;HPM_P1;HPM_P2
2022/05/15 00:01:58;;;;;;;;;1.50;1.00;;;;;30.33;100.00;101127.06;5051478;28;51374;-48
2022/05/15 00:04:43;;;;;;;;;1.75;1.00;;;;;30.35;100.00;101133.31;5053986;28;51134;-47
2022/05/15 00:07:27;;;;;;;;;2.00;1.00;;;;;30.38;100.00;101130.28;5060175;28;51222;-51
2022/05/15 00:10:11;;;;;;;;;2.00;1.00;;;;;30.40;100.00;101122.81;5056204;28;51535;-48
2022/05/15 00:12:56;;;;;;;;;0.50;0.50;;;;;30.43;100.00;101119.81;5049608;28;51517;-49
2022/05/15 00:15:41;;;;;;;;;0.00;0.00;;;;;30.45;100.00;101120.56;5052736;28;51146;-49
2022/05/15 00:18:27;;;;;;;;;1.50;0.00;;;;;30.49;100.00;101123.94;5060528;28;51171;-50
2022/05/15 00:21:13;;;;;;;;;0.75;0.75;;;;;30.49;100.00;101117.53;5045050;28;51537;-50
2022/05/15 00:23:59;;;;;;;;;0.75;0.00;;;;;30.53;100.00;101122.69;5054617;28;51309;-46
2022/05/15 00:26:44;;;;;;;;;3.00;1.50;;;;;30.49;100.00;101117.53;5060054;28;50969;-45
2022/05/15 00:29:29;;;;;;;;;1.75;1.75;;;;;30.46;100.00;101124.16;5059734;28;51099;-50
2022/05/15 00:32:13;;;;;;;;;1.00;0.00;;;;;30.45;100.00;101105.94;5057805;28;51166;-49
2022/05/15 00:34:58;;;;;;;;;1.75;1.75;;;;;30.44;100.00;101107.84;5049253;28;51510;-49
2022/05/15 00:37:43;;;;;;;;;2.75;1.00;;;;;30.41;100.00;101105.34;5043869;28;51158;-47
2022/05/15 00:40:27;;;;;;;;;0.00;0.00;;;;;30.43;100.00;101111.56;5039471;28;51121;-47
2022/05/15 00:43:34;;;;;;;;;1.00;1.00;;;;;30.47;100.00;101105.84;5040189;28;51228;-49
2022/05/15 00:46:34;;;;;;;;;1.00;1.00;;;;;30.47;100.00;101103.09;5039172;28;51202;-51
2022/05/15 00:49:18;;;;;;;;;0.00;0.00;;;;;30.46;100.00;101093.97;5039716;28;51159;-50
2022/05/15 00:52:10;;;;;;;;;0.25;0.25;;;;;30.48;100.00;101097.47;5039878;28;51171;-49
2022/05/15 00:55:00;;;;;;;;;0.00;0.00;;;;;30.48;100.00;101096.63;5042626;28;51111;-48
2022/05/15 00:57:49;;;;;;;;;0.75;0.75;;;;;30.52;100.00;101098.09;5037681;28;51346;-47
2022/05/15 01:00:34;;;;;;;;;2.00;1.00;;;;;30.54;100.00;101093.38;5040704;28;51358;-48
2022/05/15 01:03:20;;;;;;;;;0.00;0.00;;;;;30.55;100.00;101095.13;5040697;28;51383;-46
2022/05/15 01:06:05;;;;;;;;;1.75;1.75;;;;;30.51;100.00;101089.00;5058508;28;51177;-46
2022/05/15 01:08:49;;;;;;;;;1.25;1.25;;;;;30.50;100.00;101087.25;5057373;28;51521;-46
2022/05/15 01:11:34;;;;;;;;;2.00;1.00;;;;;30.50;100.00;101089.97;5038965;28;51174;-49
2022/05/15 01:14:19;;;;;;;;;1.00;1.00;;;;;30.53;100.00;101099.88;5039319;28;51144;-47
2022/05/15 01:17:05;;;;;;;;;1.00;1.00;;;;;30.53;100.00;101091.63;5049967;28;51079;-48
2022/05/15 01:19:49;;;;;;;;;1.75;1.00;;;;;30.50;100.00;101079.00;5058763;28;51128;-49
2022/05/15 01:22:34;;;;;;;;;1.00;1.00;;;;;30.55;100.00;101095.97;5059778;28;51130;-50
2022/05/15 01:25:25;;;;;;;;;0.75;0.75;;;;;30.54;100.00;101090.63;5059239;28;51170;-50
2022/05/15 01:28:15;;;;;;;;;0.25;0.25;;;;;30.57;100.00;101082.16;5059120;28;51447;-50
2022/05/15 01:31:00;;;;;;;;;1.00;1.00;;;;;30.56;100.00;101077.66;5058804;28;51171;-48
2022/05/15 01:33:49;;;;;;;;;0.50;0.50;;;;;30.62;100.00;101088.09;5059650;28;51091;-50
2022/05/15 01:36:34;;;;;;;;;1.75;0.00;;;;;30.58;100.00;101092.13;5052083;28;51103;-50
2022/05/15 01:39:19;;;;;;;;;2.00;0.75;;;;;30.60;100.00;101093.75;5038778;28;51167;-49
2022/05/15 01:42:04;;;;;;;;;0.00;0.00;;;;;30.62;100.00;101082.63;5038263;28;51348;-48
2022/05/15 01:44:48;;;;;;;;;0.00;0.00;;;;;30.59;100.00;101075.50;5055487;28;51051;-51
2022/05/15 01:47:33;;;;;;;;;3.50;3.00;;;;;30.61;100.00;101069.88;5059130;28;51173;-46
2022/05/15 01:50:18;;;;;;;;;4.00;3.00;;;;;30.67;100.00;101074.88;5038566;28;51243;-47
2022/05/15 01:53:03;;;;;;;;;7.00;7.00;;;;;30.69;100.00;101072.84;5038794;28;51068;-45
2022/05/15 01:55:47;;;;;;;;;4.25;4.25;;;;;30.67;100.00;101066.66;5053967;28;51166;-48
2022/05/15 01:58:32;;;;;;;;;6.75;5.50;;;;;30.70;100.00;101060.00;5059160;28;51643;-48
2022/05/15 02:01:17;;;;;;;;;7.00;6.00;;;;;30.71;100.00;101061.75;5058584;28;51094;-48
2022/05/15 02:04:02;;;;;;;;;8.00;7.50;;;;;30.70;100.00;101052.63;5058879;28;51239;-51
2022/05/15 02:06:46;;;;;;;;;13.75;9.25;;;;;30.64;100.00;101038.53;5058958;28;51206;-51
2022/05/15 02:09:31;;;;;;;;;10.00;9.50;;;;;30.71;100.00;101053.53;5061361;28;51125;-51
2022/05/15 02:12:15;;;;;;;;;9.50;9.50;;;;;30.71;100.00;101048.88;5062933;28;51282;-49
2022/05/15 02:15:01;;;;;;;;;10.50;9.00;;;;;30.71;100.00;101054.38;5062376;28;51386;-51
2022/05/15 02:17:47;;;;;;;;;10.50;7.50;;;;;30.69;100.00;101052.78;5062753;28;51170;-50
2022/05/15 02:20:31;;;;;;;;;11.00;9.25;;;;;30.64;100.00;101036.69;5061169;28;51303;-49
2022/05/15 02:23:16;;;;;;;;;10.50;10.50;;;;;30.71;100.00;101054.38;5062919;28;51118;-50
2022/05/15 02:26:01;;;;;;;;;9.75;9.50;;;;;30.59;100.00;101028.84;5062186;28;51452;-49
2022/05/15 02:28:45;;;;;;;;;9.50;9.00;;;;;30.68;100.00;101046.41;5062630;28;51096;-48
2022/05/15 02:31:30;;;;;;;;;11.50;10.00;;;;;30.71;100.00;101045.28;5062385;28;51115;-51
2022/05/15 02:34:15;;;;;;;;;12.75;9.75;;;;;30.69;100.00;101037.16;5062350;28;51216;-52
2022/05/15 02:36:59;;;;;;;;;14.00;13.25;;;;;30.68;100.00;101043.69;5040295;28;51713;-52
2022/05/15 02:39:44;;;;;;;;;15.00;11.75;;;;;30.59;100.00;101020.59;5041163;28;51004;-48
2022/05/15 02:42:28;;;;;;;;;12.75;10.00;;;;;30.70;100.00;101041.66;5039744;28;51427;-46
2022/05/15 02:45:13;;;;;;;;;12.00;9.25;;;;;30.70;100.00;101029.81;5041398;28;51197;-47
2022/05/15 02:47:58;;;;;;;;;9.75;7.75;;;;;30.70;100.00;101043.53;5057348;28;51166;-48
2022/05/15 02:53:46;;;;;;;;;13.50;11.00;;;;;30.69;100.00;101050.03;5061830;28;51096;-52
2022/05/15 02:56:32;;;;;;;;;10.00;9.00;;;;;30.66;100.00;101053.91;5061733;28;51346;-50
2022/05/15 02:59:17;;;;;;;;;9.00;8.25;;;;;30.66;100.00;101056.66;5060771;28;51218;-53
2022/05/15 03:02:02;;;;;;;;;4.25;4.25;;;;;30.67;100.00;101068.50;5046587;28;51014;-49
2022/05/15 03:04:47;;;;;;;;;8.25;8.25;;;;;30.65;100.00;101056.75;5041592;28;51075;-51
2022/05/15 03:07:32;;;;;;;;;9.00;8.00;;;;;30.63;100.00;101056.91;5041599;28;51136;-50
2022/05/15 03:10:18;;;;;;;;;10.75;10.25;;;;;30.66;100.00;101061.25;5058526;28;50997;-50
2022/05/15 03:13:03;;;;;;;;;11.25;11.25;;;;;30.64;100.00;101055.91;5061864;28;51032;-50
2022/05/15 03:15:47;;;;;;;;;12.00;10.25;;;;;30.63;100.00;101056.03;5061353;28;51050;-50
2022/05/15 03:18:33;;;;;;;;;14.50;13.00;;;;;30.62;100.00;101052.41;5061285;28;51188;-50
2022/05/15 03:21:30;;;;;;;;;12.50;12.50;;;;;30.64;100.00;101055.00;5061532;28;51383;-50
2022/05/15 03:24:15;;;;;;;;;12.50;8.75;;;;;30.63;100.00;101042.31;5061397;28;51068;-47
2022/05/15 03:27:00;;;;;;;;;12.25;9.75;;;;;30.58;100.00;101035.31;5061204;28;51116;-48
2022/05/15 03:29:44;;;;;;;;;13.00;10.25;;;;;30.57;100.00;101036.31;5061355;28;51195;-48
2022/05/15 03:32:29;;;;;;;;;15.00;10.25;;;;;30.55;100.00;101030.09;5061227;28;51094;-46
2022/05/15 03:35:14;;;;;;;;;11.50;11.50;;;;;30.54;100.00;101024.72;5056576;28;51126;-47
2022/05/15 03:37:58;;;;;;;;;14.00;13.00;;;;;30.53;100.00;101025.72;5040808;28;51139;-48
2022/05/15 03:40:43;;;;;;;;;14.00;11.25;;;;;30.52;100.00;101029.44;5060736;28;51076;-51
2022/05/15 03:43:28;;;;;;;;;15.50;12.75;;;;;30.49;100.00;101027.84;5060762;28;51047;-51
2022/05/15 03:46:12;;;;;;;;;12.25;10.50;;;;;30.48;100.00;101026.09;5040668;28;51040;-46
2022/05/15 03:48:58;;;;;;;;;10.00;9.25;;;;;30.47;100.00;101018.84;5057200;28;51289;-51
2022/05/15 03:51:42;;;;;;;;;8.25;8.25;;;;;30.45;100.00;101020.84;5040740;28;51127;-47
2022/05/15 03:54:27;;;;;;;;;12.00;9.00;;;;;30.45;100.00;101016.25;5040757;28;51179;-48
2022/05/15 03:57:11;;;;;;;;;7.00;7.00;;;;;30.45;100.00;101013.50;5060486;28;51371;-50
2022/05/15 03:59:56;;;;;;;;;9.75;8.00;;;;;30.41;100.00;101006.50;5060296;28;51127;-51
2022/05/15 04:02:40;;;;;;;;;10.50;9.00;;;;;30.36;100.00;100989.56;5060862;28;51085;-50
2022/05/15 04:05:25;;;;;;;;;6.75;6.25;;;;;30.38;100.00;100992.16;5055889;28;51074;-48
2022/05/15 04:08:10;;;;;;;;;8.75;7.50;;;;;30.40;100.00;100996.53;5059403;28;51124;-48
2022/05/15 04:10:55;;;;;;;;;7.25;7.25;;;;;30.40;100.00;101002.00;5048991;28;51182;-46
2022/05/15 04:13:40;;;;;;;;;7.25;6.50;;;;;30.37;100.00;101002.25;5040168;28;51208;-50
2022/05/15 04:16:24;;;;;;;;;6.25;6.25;;;;;30.36;100.00;101000.53;5055864;28;51067;-49
2022/05/15 04:19:09;;;;;;;;;9.75;8.75;;;;;30.37;100.00;101002.25;5060176;28;51268;-49
2022/05/15 04:21:54;;;;;;;;;9.25;7.00;;;;;30.36;100.00;100999.66;5041038;28;51162;-52
2022/05/15 04:24:38;;;;;;;;;8.00;8.00;;;;;30.34;100.00;100991.56;5057006;28;51152;-51
2022/05/15 04:27:24;;;;;;;;;9.75;8.25;;;;;30.32;100.00;100988.06;5040193;28;51140;-51
2022/05/15 04:30:12;;;;;;;;;8.25;8.25;;;;;30.37;100.00;100998.66;5039578;28;51026;-46
2022/05/15 04:32:56;;;;;;;;;8.00;8.00;;;;;30.31;100.00;101005.53;5039503;28;51234;-48
2022/05/15 04:35:41;;;;;;;;;9.25;9.25;;;;;30.33;100.00;101005.38;5035104;28;51505;-50
2022/05/15 04:38:26;;;;;;;;;8.00;7.50;;;;;30.30;100.00;101004.69;5049008;28;51205;-49
2022/05/15 04:41:10;;;;;;;;;10.25;10.25;;;;;30.27;100.00;101007.66;5039755;28;50993;-48
2022/05/15 04:43:55;;;;;;;;;8.25;8.25;;;;;30.29;100.00;101005.66;5039812;28;51058;-50
2022/05/15 04:46:40;;;;;;;;;11.00;8.00;;;;;30.29;100.00;101004.78;5039652;28;51136;-49
2022/05/15 04:49:25;;;;;;;;;9.25;7.75;;;;;30.30;100.00;101009.28;5039563;28;51512;-48
2022/05/15 04:52:10;;;;;;;;;9.00;7.75;;;;;30.31;100.00;101013.75;5039835;28;51033;-49
2022/05/15 04:54:55;;;;;;;;;11.50;10.00;;;;;30.29;100.00;101007.53;5039605;28;51522;-50
2022/05/15 04:57:39;;;;;;;;;15.00;11.00;;;;;30.26;100.00;101013.28;5052447;28;51062;-50
2022/05/15 05:00:24;;;;;;;;;10.50;10.50;;;;;30.29;100.00;101021.25;5059687;28;51419;-50
2022/05/15 05:03:09;;;;;;;;;9.75;9.50;;;;;30.29;100.00;101024.00;5058725;28;51240;-47
2022/05/15 05:05:54;;;;;;;;;10.50;8.00;;;;;30.27;100.00;101018.66;5059774;28;51441;-49
2022/05/15 05:08:38;;;;;;;;;6.50;6.50;;;;;30.28;100.00;101025.88;5059601;28;51123;-52
2022/05/15 05:11:23;;;;;;;;;10.25;9.75;;;;;30.28;100.00;101023.13;5059727;28;51114;-49
2022/05/15 05:14:08;;;;;;;;;7.75;7.25;;;;;30.29;100.00;101021.25;5059504;28;51217;-53
2022/05/15 05:16:53;;;;;;;;;9.00;9.00;;;;;30.29;100.00;101032.22;5060161;28;51082;-47
2022/05/15 05:19:38;;;;;;;;;11.50;11.50;;;;;30.28;100.00;101038.72;5059415;28;51219;-51
2022/05/15 05:22:22;;;;;;;;;15.75;11.00;;;;;30.29;100.00;101038.59;5059486;28;51148;-53
2022/05/15 05:25:08;;;;;;;;;25.00;19.25;;;;;30.29;100.00;101041.34;5059637;28;51517;-48
2022/05/15 05:27:52;;;;;;;;;21.50;20.50;;;;;30.29;100.00;101043.22;5059479;28;51142;-49
2022/05/15 05:30:40;;;;;;;;;18.25;15.50;;;;;30.30;100.00;101054.09;5059012;28;51500;-49
2022/05/15 05:33:25;;;;;;;;;17.00;15.75;;;;;30.26;100.00;101044.34;5058132;28;51106;-47
2022/05/15 05:36:10;;;;;;;;;13.00;12.75;;;;;30.25;100.00;101041.75;5052769;28;51522;-48
2022/05/15 05:38:56;;;;;;;;;14.75;14.75;;;;;30.24;100.00;101034.50;5049319;28;51142;-49
2022/05/15 05:41:41;;;;;;;;;17.75;11.75;;;;;30.25;100.00;101047.22;5058208;28;51166;-50
2022/05/15 05:44:26;;;;;;;;;13.25;10.75;;;;;30.25;100.00;101041.75;5062723;28;51475;-49
2022/05/15 05:47:10;;;;;;;;;10.25;10.25;;;;;30.28;100.00;101053.31;5063167;28;51071;-50
2022/05/15 05:49:55;;;;;;;;;11.00;11.00;;;;;30.32;100.00;101056.69;5063510;28;51090;-51
2022/05/15 05:52:40;;;;;;;;;9.25;9.25;;;;;30.40;100.00;101054.16;5062938;28;51189;-52
2022/05/15 05:55:26;;;;;;;;;15.00;12.75;;;;;30.47;100.00;101056.44;5050172;28;51379;-49
2022/05/15 05:58:11;;;;;;;;;13.25;11.25;;;;;30.55;100.00;101054.78;5042781;28;51211;-53
2022/05/15 06:00:55;;;;;;;;;14.75;13.50;;;;;30.66;100.00;101070.38;5059975;28;51152;-49
2022/05/15 06:06:44;;;;;;;;;14.50;13.00;;;;;31.05;100.00;101098.22;5062934;28;51216;-49
2022/05/15 06:09:28;;;;;;;;;16.50;14.75;;;;;31.29;100.00;101116.41;5052048;28;51517;-46
2022/05/15 06:12:15;;;;;;;;;22.50;16.50;;;;;31.55;100.00;101126.16;5054840;28;51122;-48
2022/05/15 06:14:59;;;;;;;;;23.75;22.00;;;;;31.75;100.00;101124.47;5042608;28;51617;-48
2022/05/15 06:17:44;;;;;;;;;52.25;41.00;;;;;31.96;100.00;101124.41;5042356;28;51500;-49
2022/05/15 06:20:28;;;;;;;;;33.00;28.00;;;;;32.21;100.00;101134.09;5059117;28;52685;-48
2022/05/15 06:23:13;;;;;;;;;26.75;24.50;;;;;32.52;100.00;101139.63;5062604;28;51458;-52
2022/05/15 06:25:57;;;;;;;;;28.50;24.00;;;;;32.87;100.00;101142.94;5062820;28;51557;-49
2022/05/15 06:28:42;;;;;;;;;19.00;19.00;;;;;33.23;100.00;101148.78;5062105;28;51068;-51
2022/05/15 06:31:26;;;;;;;;;21.50;21.25;;;;;33.61;100.00;101148.97;5062916;28;51133;-51
2022/05/15 06:34:11;;;;;;;;;29.00;23.25;;;;;33.99;100.00;101159.09;5061130;28;51173;-50
2022/05/15 06:36:55;;;;;;;;;27.25;23.75;;;;;34.41;100.00;101170.75;5051044;28;51093;-49
2022/05/15 06:39:40;;;;;;;;;25.25;23.75;;;;;34.59;100.00;101168.91;5043768;28;51664;-49
2022/05/15 06:42:25;;;;;;;;;19.50;17.00;;;;;34.37;100.00;101175.69;5042014;28;51116;-49
2022/05/15 06:45:11;;;;;;;;;24.75;23.50;;;;;34.35;100.00;101196.19;5047410;28;51535;-47
2022/05/15 06:47:56;;;;;;;;;26.00;24.00;;;;;34.22;100.00;101194.66;5039151;28;51150;-45
2022/05/15 06:50:41;;;;;;;;;31.25;25.75;;;;;34.26;100.00;101204.34;5044882;28;51513;-52
2022/05/15 06:53:26;;;;;;;;;26.00;23.50;;;;;34.28;100.00;101204.22;5054425;28;51227;-48
2022/05/15 06:59:14;;;;;;;;;22.00;22.00;;;;;34.64;100.00;101226.50;5041639;28;51133;-52
2022/05/15 07:01:59;;;;;;;;;24.75;20.00;;;;;34.87;100.00;101237.16;5041675;28;51542;-50
2022/05/15 07:04:44;;;;;;;;;21.75;21.75;;;;;35.04;100.00;101238.25;5041683;28;51481;-49
2022/05/15 07:07:28;;;;;;;;;20.75;19.00;;;;;35.24;100.00;101249.19;5041899;28;51092;-53
2022/05/15 07:10:14;;;;;;;;;16.25;15.25;;;;;35.43;100.00;101260.16;5058450;28;51430;-50
2022/05/15 07:12:58;;;;;;;;;22.75;19.75;;;;;35.65;100.00;101261.63;5061749;28;51220;-50
2022/05/15 07:15:43;;;;;;;;;24.25;19.00;;;;;35.88;100.00;101263.00;5061718;28;51150;-46
2022/05/15 07:18:27;;;;;;;;;24.25;20.50;;;;;36.09;100.00;101259.91;5040600;28;51140;-49
2022/05/15 07:21:12;;;;;;;;;23.50;22.25;;;;;36.28;100.00;101258.84;5041805;28;51042;-46
2022/05/15 07:23:56;;;;;;;;;33.50;28.25;;;;;36.57;100.00;101266.88;5041208;28;51111;-48
2022/05/15 07:26:44;;;;;;;;;22.50;21.25;;;;;36.78;100.00;101265.59;5041117;28;51130;-46
2022/05/15 07:29:29;;;;;;;;;22.50;20.00;;;;;37.00;100.00;101283.56;5041472;28;51075;-45
2022/05/15 07:32:13;;;;;;;;;20.75;17.25;;;;;37.14;100.00;101293.19;5041534;28;51077;-50
2022/05/15 07:34:57;;;;;;;;;20.00;17.25;;;;;37.33;100.00;101293.94;5040886;28;51175;-45
2022/05/15 07:37:42;;;;;;;;;20.25;17.50;;;;;37.53;100.00;101291.75;5041383;28;51149;-47
2022/05/15 07:40:27;;;;;;;;;19.75;18.50;;;;;37.68;100.00;101290.03;5041063;28;51433;-47
2022/05/15 07:43:12;;;;;;;;;15.50;14.50;;;;;37.83;100.00;101298.56;5040739;28;51166;-47
2022/05/15 07:45:57;;;;;;;;;17.50;14.50;;;;;37.98;100.00;101312.66;5041329;28;50974;-47
2022/05/15 07:48:41;;;;;;;;;11.00;11.00;;;;;38.11;100.00;101300.16;5040721;28;50982;-47
2022/05/15 07:51:26;;;;;;;;;14.25;11.00;;;;;38.23;100.00;101307.09;5057582;28;51287;-45
2022/05/15 07:54:12;;;;;;;;;15.50;12.50;;;;;38.26;100.00;101311.44;5060782;28;51124;-48
2022/05/15 07:56:56;;;;;;;;;16.25;11.75;;;;;38.28;100.00;101318.56;5061282;28;51098;-45
2022/05/15 07:59:41;;;;;;;;;14.50;12.75;;;;;38.27;100.00;101321.53;5060763;28;51178;-50
2022/05/15 08:02:28;;;;;;;;;14.50;14.25;;;;;38.16;100.00;101321.88;5056852;28;51139;-45
2022/05/15 08:08:25;;;;;;;;;10.00;8.00;;;;;37.67;100.00;101332.72;5037021;28;51080;-52
2022/05/15 08:11:10;;;;;;;;;6.50;4.50;;;;;37.26;100.00;101335.34;5042238;28;51341;-47
2022/05/15 08:13:56;;;;;;;;;7.50;6.50;;;;;36.93;100.00;101332.41;5039049;28;51340;-46
2022/05/15 08:16:40;;;;;;;;;3.00;3.00;;;;;36.56;100.00;101334.44;5039790;28;51241;-49
2022/05/15 08:25:31;;;;;;;;;3.50;3.50;;;;;35.98;100.00;101347.75;5038403;28;51518;-49
2022/05/15 08:28:16;;;;;;;;;4.50;4.50;;;;;35.90;100.00;101357.88;5043024;28;51290;-48
2022/05/15 08:31:02;;;;;;;;;1.75;1.75;;;;;35.75;100.00;101354.78;5057837;28;51192;-45
2022/05/15 08:33:48;;;;;;;;;2.00;2.00;;;;;35.63;100.00;101377.13;5059895;28;51008;-47
2022/05/15 08:36:33;;;;;;;;;1.75;1.50;;;;;35.54;100.00;101372.53;5060484;28;51113;-45
2022/05/15 08:39:20;;;;;;;;;2.50;1.75;;;;;35.40;100.00;101370.25;5057267;28;51174;-46
2022/05/15 08:42:11;;;;;;;;;2.00;2.00;;;;;35.24;100.00;101359.84;5047802;28;52155;-48
2022/05/15 08:45:00;;;;;;;;;1.00;1.00;;;;;35.09;100.00;101363.09;5051260;28;51258;-49
2022/05/15 08:47:47;;;;;;;;;0.50;0.50;;;;;35.08;100.00;101364.16;5048906;28;51274;-49
2022/05/15 08:50:35;;;;;;;;;1.25;1.00;;;;;35.06;100.00;101363.41;5053118;28;51405;-49
2022/05/15 08:53:33;;;;;;;;;3.00;1.75;;;;;34.99;100.00;101353.97;5058243;27;51257;-50
2022/05/15 08:56:18;;;;;;;;;3.75;2.50;;;;;34.98;100.00;101354.97;5051301;28;51615;-52
2022/05/15 08:59:07;;;;;;;;;4.00;3.00;;;;;35.00;100.00;101352.94;5045602;28;51290;-47
2022/05/15 09:01:54;;;;;;;;;3.00;2.50;;;;;34.94;100.00;101354.44;5050993;28;51320;-47
2022/05/15 09:04:38;;;;;;;;;3.50;2.00;;;;;34.97;100.00;101350.50;5052256;28;51361;-46
2022/05/15 09:07:49;;;;;;;;;1.25;1.25;;;;;35.04;100.00;101352.50;5050013;28;51176;-47
2022/05/15 09:10:50;;;;;;;;;0.25;0.25;;;;;35.00;100.00;101347.41;5067122;27;51500;-46
2022/05/15 09:13:42;;;;;;;;;1.25;1.25;;;;;34.98;100.00;101358.63;5054203;28;51227;-46
2022/05/15 09:16:27;;;;;;;;;2.50;2.50;;;;;35.00;100.00;101355.72;5052961;28;51099;-50
2022/05/15 09:19:12;;;;;;;;;2.00;1.75;;;;;35.03;100.00;101349.88;5047185;28;51149;-49
2022/05/15 09:21:59;;;;;;;;;0.00;0.00;;;;;35.05;100.00;101340.41;5041710;28;51239;-48
2022/05/15 09:24:52;;;;;;;;;1.00;0.50;;;;;34.99;100.00;101348.44;5048549;28;51181;-43
2022/05/15 09:27:37;;;;;;;;;2.75;2.75;;;;;34.98;100.00;101350.34;5050114;28;51119;-48
2022/05/15 09:30:21;;;;;;;;;1.50;1.00;;;;;34.97;100.00;101365.19;5050845;28;51429;-49
2022/05/15 09:33:06;;;;;;;;;1.50;0.75;;;;;34.92;100.00;101359.25;5048248;28;51167;-50
2022/05/15 09:35:51;;;;;;;;;2.25;2.25;;;;;34.85;100.00;101363.59;5051652;28;51183;-49
2022/05/15 09:38:38;;;;;;;;;3.00;3.00;;;;;34.75;100.00;101361.72;5051409;28;51120;-48
2022/05/15 09:44:42;;;;;;;;;1.00;1.00;;;;;34.67;100.00;101361.63;5030935;28;51260;-47
2022/05/15 09:47:43;;;;;;;;;1.75;1.50;;;;;34.67;100.00;101372.66;5049728;28;51113;-50
2022/05/15 09:50:55;;;;;;;;;1.75;1.75;;;;;34.67;100.00;101363.50;5048823;28;51151;-45
2022/05/15 09:53:46;;;;;;;;;1.75;1.75;;;;;34.72;100.00;101364.78;5051294;28;51128;-43
2022/05/15 09:56:33;;;;;;;;;1.00;1.00;;;;;34.69;100.00;101367.88;5050993;28;51587;-48
2022/05/15 09:59:26;;;;;;;;;1.00;1.00;;;;;34.60;100.00;101380.69;5045434;28;51381;-48
2022/05/15 10:02:44;;;;;;;;;2.50;2.00;;;;;34.54;100.00;101374.88;5048963;28;51214;-47
2022/05/15 10:05:31;;;;;;;;;1.75;1.75;;;;;34.47;100.00;101377.34;5051773;28;51277;-51
2022/05/15 10:08:24;;;;;;;;;2.00;2.00;;;;;34.36;100.00;101377.47;5051928;28;51207;-51
2022/05/15 10:11:17;;;;;;;;;3.25;2.00;;;;;34.31;100.00;101364.09;5044015;28;51199;-48
2022/05/15 10:14:02;;;;;;;;;3.50;1.50;;;;;34.32;100.00;101371.38;5052725;28;51801;-50
2022/05/15 10:16:55;;;;;;;;;3.00;2.00;;;;;34.28;100.00;101368.03;5050415;28;51487;-49
2022/05/15 10:19:56;;;;;;;;;3.00;2.75;;;;;34.23;100.00;101361.19;5050528;28;51248;-46
2022/05/15 10:23:14;;;;;;;;;3.00;1.00;;;;;34.19;100.00;101379.97;5043287;28;51203;-51
2022/05/15 10:25:59;;;;;;;;;2.75;1.25;;;;;34.17;100.00;101364.56;5047433;28;51494;-48
2022/05/15 10:29:02;;;;;;;;;5.00;3.00;;;;;34.10;100.00;101367.88;5048634;28;51262;-50
2022/05/15 10:31:52;;;;;;;;;6.25;3.75;;;;;34.05;100.00;101366.56;5051568;28;51073;-48
2022/05/15 10:34:37;;;;;;;;;2.00;2.00;;;;;33.94;100.00;101362.94;5052924;28;51293;-50
2022/05/15 10:37:43;;;;;;;;;1.50;1.50;;;;;33.98;100.00;101371.78;5055033;28;52526;-51
2022/05/15 10:40:53;;;;;;;;;2.00;1.00;;;;;33.97;100.00;101362.66;5051960;28;51565;-49
2022/05/15 10:44:00;;;;;;;;;1.00;0.75;;;;;33.96;100.00;101358.16;5046596;28;51246;-46
2022/05/15 10:46:50;;;;;;;;;4.25;1.50;;;;;33.88;100.00;101357.09;5050941;28;51099;-51
2022/05/15 10:49:49;;;;;;;;;2.25;2.25;;;;;33.81;100.00;101359.56;5053869;28;51201;-46
2022/05/15 10:52:52;;;;;;;;;5.00;2.00;;;;;33.81;100.00;101349.38;5050575;28;51872;-48
2022/05/15 10:59:28;;;;;;;;;1.75;1.75;;;;;33.79;100.00;101343.13;5049270;28;51234;-48
2022/05/15 11:02:22;;;;;;;;;3.75;3.00;;;;;33.77;100.00;101342.41;5051261;28;51191;-49
2022/05/15 11:05:21;;;;;;;;;2.00;2.00;;;;;33.78;100.00;101346.03;5045057;28;51105;-46
2022/05/15 11:08:11;;;;;;;;;2.00;2.00;;;;;33.80;100.00;101352.31;5046531;28;51297;-46
2022/05/15 11:11:26;;;;;;;;;4.00;3.00;;;;;33.75;100.00;101344.44;5041331;28;51084;-46
2022/05/15 11:14:22;;;;;;;;;3.25;2.00;;;;;33.70;100.00;101326.56;5045165;28;51132;-51
2022/05/15 11:17:18;;;;;;;;;2.00;2.00;;;;;33.75;100.00;101329.75;5057350;28;51118;-48
2022/05/15 11:20:53;;;;;;;;;2.25;1.75;;;;;33.71;100.00;101318.16;5056520;28;51150;-52
2022/05/15 11:23:49;;;;;;;;;0.75;0.75;;;;;33.79;100.00;101314.69;5049101;28;51169;-47
2022/05/15 11:26:45;;;;;;;;;2.00;2.00;;;;;33.82;100.00;101314.38;5040760;28;51205;-49
2022/05/15 11:29:30;;;;;;;;;5.25;1.75;;;;;33.79;100.00;101318.28;5049327;28;51462;-50
2022/05/15 11:32:44;;;;;;;;;3.25;2.00;;;;;33.74;100.00;101315.09;5040401;28;51332;-51
2022/05/15 11:35:33;;;;;;;;;2.50;2.00;;;;;33.71;100.00;101304.34;5035518;28;51170;-49
2022/05/15 11:38:30;;;;;;;;;3.50;1.50;;;;;33.75;100.00;101308.56;5060752;28;51087;-51
2022/05/15 11:41:43;;;;;;;;;2.25;2.00;;;;;33.73;100.00;101315.22;5060902;28;51195;-48
2022/05/15 11:44:46;;;;;;;;;4.25;4.25;;;;;33.67;100.00;101316.69;5057162;28;51499;-45
2022/05/15 11:47:34;;;;;;;;;2.75;1.75;;;;;33.64;100.00;101301.28;5074590;27;51474;-47
2022/05/15 11:50:37;;;;;;;;;3.00;3.00;;;;;33.66;100.00;101303.88;5059874;28;51196;-50
2022/05/15 11:53:53;;;;;;;;;3.25;3.25;;;;;33.58;100.00;101282.56;5060108;28;51030;-48
2022/05/15 11:56:46;;;;;;;;;2.50;2.50;;;;;33.61;100.00;101273.13;5049194;28;51186;-48
2022/05/15 11:59:38;;;;;;;;;3.50;3.50;;;;;33.60;100.00;101269.47;5052474;28;51200;-50
2022/05/15 12:02:33;;;;;;;;;2.00;2.00;;;;;33.63;100.00;101266.44;5060964;28;51207;-46
